Time;durP1;ratioP1;P1;durP2;ratioP2;P2;SDS_P1;SDS_P2;PMS_P1;PMS_P2;Temp;Humidity;BMP_temperature;BMP_pressure;BME280_temperature;BME280_humidity;BME280_pressure;Samples;Min_cycle;Max_cycle;Signal;HPM_P1;HPM_P2
2022/12/17 13:06:45;;;;;;;23.03;17.93;;;;;;;0.46;97.50;97271.75;5014782;28;20208;-61
2022/12/17 13:09:29;;;;;;;19.47;17.13;;;;;;;0.47;98.65;97265.63;5014112;28;20228;-62
2022/12/17 13:12:08;;;;;;;20.93;17.63;;;;;;;0.34;96.32;97264.47;4998357;28;20199;-62
2022/12/17 13:14:36;;;;;;;21.33;17.20;;;;;;;0.32;97.83;97271.50;4992388;28;20207;-59
2022/12/17 13:17:20;;;;;;;19.57;17.47;;;;;;;0.28;100.00;97273.38;4991254;28;20216;-60
2022/12/17 13:19:59;;;;;;;21.07;17.80;;;;;;;0.27;100.00;97260.44;4993857;28;20650;-60
2022/12/17 13:22:30;;;;;;;20.73;18.13;;;;;;;0.31;100.00;97281.06;4995525;28;20216;-60
2022/12/17 13:25:14;;;;;;;21.17;17.47;;;;;;;0.31;99.79;97272.41;4994665;28;20222;-61
2022/12/17 13:27:41;;;;;;;20.67;17.53;;;;;;;0.28;100.00;97267.34;4995530;28;20550;-61
2022/12/17 13:30:31;;;;;;;21.90;17.70;;;;;;;0.39;100.00;97265.13;5014191;28;20261;-61
2022/12/17 13:33:08;;;;;;;21.47;17.90;;;;;;;0.31;100.00;97259.41;5017167;28;20235;-61
2022/12/17 13:35:41;;;;;;;22.40;17.57;;;;;;;0.36;100.00;97270.44;5019419;28;20437;-65
2022/12/17 13:38:13;;;;;;;19.83;17.67;;;;;;;0.36;100.00;97260.03;5004905;28;20206;-62
2022/12/17 13:40:44;;;;;;;20.70;17.83;;;;;;;0.44;98.38;97263.16;4994464;28;20647;-61
2022/12/17 13:43:16;;;;;;;20.53;16.90;;;;;;;0.48;98.64;97255.16;4998699;28;20255;-61
2022/12/17 13:45:43;;;;;;;20.83;18.30;;;;;;;0.30;100.00;97271.56;5004565;28;20633;-61
2022/12/17 13:48:20;;;;;;;22.07;18.27;;;;;;;0.32;100.00;97279.31;5004680;28;20199;-62
2022/12/17 13:50:53;;;;;;;22.30;17.10;;;;;;;0.32;100.00;97279.31;5005264;28;20291;-61
2022/12/17 13:53:19;;;;;;;20.97;17.33;;;;;;;0.35;100.00;97284.38;5004911;28;20215;-61
2022/12/17 13:55:50;;;;;;;22.57;17.03;;;;;;;0.40;100.00;97282.41;5004761;28;20546;-64
2022/12/17 13:58:25;;;;;;;18.97;16.57;;;;;;;0.41;100.00;97284.09;5005903;28;20211;-61
2022/12/17 14:00:52;;;;;;;20.30;17.13;;;;;;;0.36;100.00;97291.25;5004806;28;20213;-60
2022/12/17 14:03:23;;;;;;;20.00;16.90;;;;;;;0.36;100.00;97286.03;5004503;28;20250;-61
2022/12/17 14:05:50;;;;;;;19.80;17.00;;;;;;;0.39;99.98;97291.97;5005919;28;20220;-61
2022/12/17 14:08:19;;;;;;;20.93;17.53;;;;;;;0.30;100.00;97291.50;5004879;28;20215;-60
2022/12/17 14:10:50;;;;;;;21.83;17.27;;;;;;;0.33;100.00;97286.19;5003755;28;20211;-60
2022/12/17 14:13:16;;;;;;;23.73;18.80;;;;;;;0.31;100.00;97288.00;5003978;28;20558;-60
2022/12/17 14:15:45;;;;;;;24.20;18.07;;;;;;;0.30;100.00;97294.13;5004513;28;20221;-60
2022/12/17 14:18:14;;;;;;;21.67;17.30;;;;;;;0.29;100.00;97293.25;5004708;28;20221;-60
2022/12/17 14:20:42;;;;;;;21.30;17.63;;;;;;;0.21;100.00;97297.13;5004290;28;20207;-60
2022/12/17 14:23:14;;;;;;;20.03;17.27;;;;;;;0.16;100.00;97293.84;5005491;28;20209;-60
2022/12/17 14:25:43;;;;;;;20.23;16.47;;;;;;;0.30;100.00;97292.34;5003547;28;20198;-60
2022/12/17 14:28:21;;;;;;;20.80;17.83;;;;;;;0.40;100.00;97292.81;5004445;28;20262;-60
2022/12/17 14:30:48;;;;;;;21.57;18.63;;;;;;;0.27;100.00;97299.44;5003389;28;20214;-59
2022/12/17 14:33:26;;;;;;;24.03;18.80;;;;;;;0.43;99.83;97295.28;5004278;28;20240;-61
2022/12/17 14:35:55;;;;;;;21.83;18.27;;;;;;;0.33;100.00;97301.78;5004580;28;20209;-61
2022/12/17 14:38:21;;;;;;;23.07;17.97;;;;;;;0.42;100.00;97309.22;5004397;28;20205;-60
2022/12/17 14:40:48;;;;;;;21.30;17.57;;;;;;;0.30;100.00;97307.13;5004525;28;20221;-60
2022/12/17 14:43:14;;;;;;;22.47;18.07;;;;;;;0.31;100.00;97314.03;5003330;28;20594;-59
2022/12/17 14:48:59;;;;;;;27.40;21.00;;;;;;;0.31;100.00;97314.03;5002634;28;20199;-60
2022/12/17 14:51:23;;;;;;;23.17;18.73;;;;;;;0.35;100.00;97315.59;5003579;28;20315;-60
2022/12/17 14:53:50;;;;;;;21.43;18.30;;;;;;;0.18;100.00;97321.47;5003369;28;20274;-59
2022/12/17 14:56:22;;;;;;;22.70;18.03;;;;;;;0.21;100.00;97323.13;5003049;28;20599;-60
2022/12/17 14:58:49;;;;;;;22.57;19.00;;;;;;;0.25;100.00;97316.88;5003859;28;20849;-61
2022/12/17 15:01:16;;;;;;;22.97;18.60;;;;;;;0.25;100.00;97319.50;5003838;28;20213;-60
2022/12/17 15:03:44;;;;;;;22.30;18.77;;;;;;;0.28;100.00;97324.56;5003685;28;20306;-61
2022/12/17 15:06:13;;;;;;;24.33;19.70;;;;;;;0.16;100.00;97320.69;4985568;28;20198;-60
2022/12/17 15:08:42;;;;;;;23.17;18.50;;;;;;;0.14;100.00;97332.09;5004174;28;20205;-60
2022/12/17 15:11:11;;;;;;;21.37;18.93;;;;;;;0.05;100.00;97340.25;5003612;28;20214;-60
2022/12/17 15:13:37;;;;;;;22.83;19.27;;;;;;;0.02;100.00;97342.97;5003249;28;20223;-60
2022/12/17 15:16:05;;;;;;;22.73;19.17;;;;;;;-0.04;100.00;97342.28;5003492;28;20209;-68
2022/12/17 15:18:31;;;;;;;21.37;18.27;;;;;;;-0.11;100.00;97342.63;5002428;28;20218;-61
2022/12/17 15:20:58;;;;;;;22.30;18.97;;;;;;;-0.12;100.00;97346.97;5003033;28;20213;-61
2022/12/17 15:23:24;;;;;;;23.90;19.40;;;;;;;-0.13;100.00;97345.28;5003285;28;20213;-60
2022/12/17 15:25:56;;;;;;;24.60;19.93;;;;;;;-0.05;100.00;97343.22;5002876;28;20211;-59
2022/12/17 15:28:23;;;;;;;29.13;20.13;;;;;;;-0.20;100.00;97338.63;5003030;28;21344;-60
2022/12/17 15:30:50;;;;;;;23.33;18.57;;;;;;;-0.31;100.00;97345.16;5003669;28;20201;-61
2022/12/17 15:33:17;;;;;;;21.60;19.27;;;;;;;-0.37;100.00;97341.06;5003469;28;20600;-61
2022/12/17 15:35:43;;;;;;;21.70;18.53;;;;;;;-0.40;100.00;97348.97;5003529;28;20223;-61
2022/12/17 15:38:12;;;;;;;23.57;18.57;;;;;;;-0.31;100.00;97350.34;5003365;28;20211;-60
2022/12/17 15:40:39;;;;;;;23.63;19.80;;;;;;;-0.43;100.00;97349.09;5002785;28;20219;-60
2022/12/17 15:43:11;;;;;;;23.70;18.47;;;;;;;-0.49;100.00;97354.50;5003183;28;20339;-59
2022/12/17 15:45:38;;;;;;;22.17;18.80;;;;;;;-0.44;100.00;97360.38;5004508;28;20546;-59
2022/12/17 15:48:05;;;;;;;23.40;19.17;;;;;;;-0.50;100.00;97353.66;5005906;28;20248;-59
2022/12/17 15:50:31;;;;;;;23.23;18.70;;;;;;;-0.42;100.00;97350.75;5005312;28;20206;-59
2022/12/17 15:52:59;;;;;;;24.27;20.10;;;;;;;-0.55;100.00;97350.41;5004337;28;20218;-60
2022/12/17 15:55:26;;;;;;;24.00;19.23;;;;;;;-0.59;100.00;97350.56;5004954;28;20299;-61
2022/12/17 15:57:53;;;;;;;23.47;18.97;;;;;;;-0.60;100.00;97343.66;5007722;28;20212;-61
2022/12/17 16:00:21;;;;;;;23.60;20.10;;;;;;;-0.65;100.00;97343.00;5006389;28;20210;-60
2022/12/17 16:02:48;;;;;;;23.87;19.57;;;;;;;-0.61;100.00;97342.00;5008117;28;20269;-60
2022/12/17 16:05:15;;;;;;;22.60;18.93;;;;;;;-0.59;100.00;97346.22;5006202;28;20208;-60
2022/12/17 16:07:42;;;;;;;25.87;20.43;;;;;;;-0.57;100.00;97346.19;5005772;28;20217;-62
2022/12/17 16:10:10;;;;;;;23.97;20.00;;;;;;;-0.57;100.00;97338.38;5007337;28;20600;-59
2022/12/17 16:12:37;;;;;;;25.20;20.30;;;;;;;-0.53;100.00;97338.19;5013315;28;20208;-59
2022/12/17 16:15:04;;;;;;;22.70;19.00;;;;;;;-0.54;100.00;97338.25;5021558;28;20222;-60
2022/12/17 16:17:32;;;;;;;26.97;21.03;;;;;;;-0.46;100.00;97346.59;5009182;28;20211;-59
2022/12/17 16:19:59;;;;;;;26.73;20.27;;;;;;;-0.51;100.00;97353.72;5006798;28;20224;-60
2022/12/17 16:22:25;;;;;;;25.10;21.93;;;;;;;-0.54;100.00;97359.03;5006272;28;20198;-59
2022/12/17 16:24:52;;;;;;;26.10;20.73;;;;;;;-0.46;100.00;97353.56;5004852;28;20211;-59
2022/12/17 16:27:19;;;;;;;27.60;21.07;;;;;;;-0.46;100.00;97351.78;5007921;28;20291;-61
2022/12/17 16:29:47;;;;;;;27.53;20.97;;;;;;;-0.51;100.00;97343.34;5004306;28;20714;-61
2022/12/17 16:32:13;;;;;;;25.20;19.97;;;;;;;-0.50;100.00;97345.03;5006038;28;20256;-59
2022/12/17 16:34:46;;;;;;;25.90;20.70;;;;;;;-0.51;100.00;97344.19;5006011;28;20231;-61
2022/12/17 16:37:13;;;;;;;24.43;20.37;;;;;;;-0.48;100.00;97343.22;5006045;28;20229;-61
2022/12/17 16:39:39;;;;;;;25.60;20.10;;;;;;;-0.47;100.00;97344.91;5003634;28;20543;-60
2022/12/17 16:42:06;;;;;;;22.77;19.13;;;;;;;-0.46;100.00;97343.16;5003696;28;20275;-61
2022/12/17 16:44:32;;;;;;;25.23;20.80;;;;;;;-0.52;100.00;97349.44;5002063;28;20245;-60
2022/12/17 16:46:59;;;;;;;28.97;21.97;;;;;;;-0.46;100.00;97354.38;5003523;28;20207;-61
2022/12/17 16:49:25;;;;;;;24.57;20.13;;;;;;;-0.47;100.00;97352.72;5003037;28;20215;-61
2022/12/17 16:51:55;;;;;;;26.97;21.37;;;;;;;-0.45;100.00;97347.44;5002335;28;20206;-61
2022/12/17 16:54:22;;;;;;;26.33;21.23;;;;;;;-0.38;100.00;97348.91;5004695;28;20241;-60
2022/12/17 16:56:49;;;;;;;24.30;20.63;;;;;;;-0.37;100.00;97361.00;5007798;28;20207;-61
2022/12/17 16:59:16;;;;;;;24.90;21.00;;;;;;;-0.38;100.00;97360.13;5006939;28;20211;-61
2022/12/17 17:01:45;;;;;;;25.07;20.77;;;;;;;-0.33;100.00;97363.41;5005890;28;20213;-61
2022/12/17 17:04:13;;;;;;;25.70;21.53;;;;;;;-0.33;100.00;97366.00;5007705;28;20231;-59
2022/12/17 17:06:41;;;;;;;25.87;20.50;;;;;;;-0.32;100.00;97366.88;5006474;28;20219;-59
2022/12/17 17:09:09;;;;;;;24.67;19.17;;;;;;;-0.31;100.00;97371.13;5004913;28;20218;-60
2022/12/17 17:11:35;;;;;;;26.37;20.97;;;;;;;-0.31;100.00;97376.34;5005247;28;20566;-61
2022/12/17 17:14:02;;;;;;;25.33;19.90;;;;;;;-0.33;100.00;97373.81;5005017;28;20232;-63
2022/12/17 17:16:29;;;;;;;24.00;19.53;;;;;;;-0.33;100.00;97381.59;5006266;28;20222;-61
2022/12/17 17:18:56;;;;;;;24.23;19.53;;;;;;;-0.29;100.00;97379.75;5006982;28;20209;-60
2022/12/17 17:21:26;;;;;;;23.33;19.80;;;;;;;-0.30;100.00;97378.88;5007436;28;20268;-61
2022/12/17 17:23:55;;;;;;;24.73;20.80;;;;;;;-0.30;100.00;97372.84;5007035;28;20221;-60
2022/12/17 17:26:23;;;;;;;25.13;20.67;;;;;;;-0.30;100.00;97378.03;5007369;28;20224;-60
2022/12/17 17:28:50;;;;;;;25.40;21.10;;;;;;;-0.26;100.00;97377.00;5006467;28;20216;-60
2022/12/17 17:31:17;;;;;;;26.40;21.10;;;;;;;-0.29;100.00;97380.59;5007224;28;20214;-60
2022/12/17 17:33:47;;;;;;;26.20;20.93;;;;;;;-0.30;100.00;97371.09;5006524;28;20281;-60
2022/12/17 17:36:15;;;;;;;25.87;21.80;;;;;;;-0.24;100.00;97378.63;5006493;28;20213;-60
2022/12/17 17:38:43;;;;;;;26.90;21.37;;;;;;;-0.25;100.00;97378.72;5006430;28;20204;-59
2022/12/17 17:41:12;;;;;;;25.70;19.87;;;;;;;-0.11;100.00;97379.84;5006936;28;20211;-60
2022/12/17 17:43:40;;;;;;;27.00;21.43;;;;;;;-0.11;100.00;97379.84;5002448;28;20251;-60
2022/12/17 17:46:08;;;;;;;25.03;20.80;;;;;;;-0.08;100.00;97384.09;4996451;28;20211;-60
2022/12/17 17:48:35;;;;;;;25.50;20.20;;;;;;;-0.12;100.00;97388.56;4996224;28;20215;-61
2022/12/17 17:51:03;;;;;;;26.93;21.20;;;;;;;-0.22;100.00;97382.03;4996612;28;20221;-59
2022/12/17 17:53:29;;;;;;;25.57;20.47;;;;;;;-0.17;100.00;97385.28;4995953;28;20196;-59
2022/12/17 17:56:02;;;;;;;24.67;20.03;;;;;;;-0.21;100.00;97383.72;4996149;28;20215;-59
2022/12/17 17:58:31;;;;;;;26.97;20.83;;;;;;;-0.20;100.00;97381.97;4996018;28;20212;-58
2022/12/17 18:00:59;;;;;;;24.90;20.47;;;;;;;-0.18;100.00;97374.97;4996459;28;20210;-60
2022/12/17 18:03:25;;;;;;;26.13;20.27;;;;;;;-0.15;100.00;97377.44;5000008;28;20229;-61
2022/12/17 18:05:52;;;;;;;27.00;21.30;;;;;;;-0.17;100.00;97387.88;5000195;28;20203;-60
2022/12/17 18:08:18;;;;;;;24.70;20.37;;;;;;;-0.11;100.00;97379.84;4998832;28;20216;-58
2022/12/17 18:10:55;;;;;;;25.57;21.03;;;;;;;-0.19;100.00;97381.06;4998562;28;20215;-58
2022/12/17 18:16:07;;;;;;;24.47;21.00;;;;;;;-0.05;100.00;97390.03;4996322;28;20656;-58
2022/12/17 18:18:34;;;;;;;26.43;20.97;;;;;;;-0.11;100.00;97394.63;4994657;28;20216;-58
2022/12/17 18:21:05;;;;;;;28.43;22.30;;;;;;;-0.17;100.00;97395.69;4994839;28;20202;-58
2022/12/17 18:23:31;;;;;;;28.23;21.83;;;;;;;-0.14;100.00;97400.75;4994408;28;20208;-58
2022/12/17 18:26:04;;;;;;;25.97;20.97;;;;;;;-0.10;100.00;97404.09;4994434;28;20204;-59
2022/12/17 18:28:31;;;;;;;27.23;21.50;;;;;;;-0.06;100.00;97403.91;4994277;28;20207;-58
2022/12/17 18:30:58;;;;;;;28.00;22.03;;;;;;;-0.07;100.00;97407.41;4994270;28;20519;-60
2022/12/17 18:33:26;;;;;;;26.67;19.87;;;;;;;-0.06;100.00;97411.72;4994275;28;20213;-59
2022/12/17 18:35:52;;;;;;;28.70;21.43;;;;;;;-0.03;100.00;97406.41;4993690;28;20333;-60
2022/12/17 18:38:19;;;;;;;25.57;21.27;;;;;;;-0.04;100.00;97409.88;5010200;28;20539;-60
2022/12/17 18:40:45;;;;;;;29.40;22.43;;;;;;;-0.04;100.00;97404.69;4994127;28;20202;-58
2022/12/17 18:43:23;;;;;;;27.10;21.83;;;;;;;-0.08;100.00;97408.34;4994696;28;20255;-58
2022/12/17 18:45:49;;;;;;;29.57;22.47;;;;;;;-0.07;100.00;97412.63;4996080;28;20203;-59
2022/12/17 18:48:16;;;;;;;28.90;22.10;;;;;;;-0.04;100.00;97412.50;4996495;28;20223;-57
2022/12/17 18:50:44;;;;;;;30.77;22.30;;;;;;;-0.05;100.00;97413.41;5012091;28;20226;-58
2022/12/17 18:53:10;;;;;;;30.57;23.50;;;;;;;-0.07;100.00;97417.81;5015867;28;20207;-58
2022/12/17 18:55:39;;;;;;;28.73;22.43;;;;;;;0.03;100.00;97414.88;5014740;28;20223;-57
2022/12/17 18:58:06;;;;;;;29.60;21.53;;;;;;;0.06;100.00;97420.81;5013026;28;20211;-57
2022/12/17 19:00:32;;;;;;;29.20;22.47;;;;;;;0.02;100.00;97415.78;4998007;28;20212;-57
2022/12/17 19:02:59;;;;;;;30.97;23.13;;;;;;;0.00;100.00;97411.47;4996924;28;20203;-57
2022/12/17 19:05:25;;;;;;;30.37;23.40;;;;;;;-0.02;100.00;97409.84;4996436;28;20636;-58
2022/12/17 19:07:53;;;;;;;30.73;23.03;;;;;;;-0.02;100.00;97415.03;4997351;28;20636;-59
2022/12/17 19:10:22;;;;;;;32.73;25.13;;;;;;;0.12;100.00;97422.31;5002670;28;20217;-58
2022/12/17 19:12:48;;;;;;;30.23;24.03;;;;;;;0.04;100.00;97419.19;5014210;28;20217;-58
2022/12/17 19:15:15;;;;;;;30.67;23.80;;;;;;;0.00;100.00;97414.06;5005536;28;20229;-57
2022/12/17 19:17:42;;;;;;;36.23;24.50;;;;;;;0.00;100.00;97421.88;5008661;28;20202;-58
2022/12/17 19:20:09;;;;;;;29.67;22.47;;;;;;;0.07;100.00;97419.06;4997624;28;20214;-58
2022/12/17 19:22:36;;;;;;;30.30;22.70;;;;;;;0.03;100.00;97427.88;5015082;28;20213;-58
2022/12/17 19:25:04;;;;;;;30.17;22.73;;;;;;;-0.02;100.00;97431.50;5031279;28;20206;-59
2022/12/17 19:27:31;;;;;;;28.63;22.27;;;;;;;0.03;100.00;97433.06;5015424;28;20192;-58
2022/12/17 19:29:57;;;;;;;27.67;22.50;;;;;;;0.00;100.00;97427.06;5011357;28;20210;-54
2022/12/17 19:32:24;;;;;;;27.87;22.27;;;;;;;-0.01;100.00;97434.94;4993494;28;20227;-58
2022/12/17 19:34:50;;;;;;;27.40;22.63;;;;;;;0.01;100.00;97440.91;4992799;28;20228;-57
2022/12/17 19:37:17;;;;;;;29.27;22.67;;;;;;;-0.02;100.00;97447.09;4993258;28;20255;-57
2022/12/17 19:39:43;;;;;;;29.40;21.53;;;;;;;0.04;100.00;97451.19;4992680;28;20205;-59
2022/12/17 19:42:23;;;;;;;28.93;22.13;;;;;;;-0.04;100.00;97454.09;4992746;28;20216;-56
2022/12/17 19:44:49;;;;;;;24.43;21.53;;;;;;;-0.09;100.00;97450.84;4992355;28;20685;-57
2022/12/17 19:47:16;;;;;;;29.60;21.73;;;;;;;-0.10;100.00;97456.94;4992790;28;20225;-59
2022/12/17 19:49:42;;;;;;;25.67;21.53;;;;;;;-0.07;100.00;97458.56;4992737;28;20648;-59
2022/12/17 19:52:09;;;;;;;26.30;21.40;;;;;;;-0.09;100.00;97455.19;4992146;28;20266;-60
2022/12/17 19:54:35;;;;;;;27.83;22.57;;;;;;;-0.08;100.00;97462.94;4991688;28;20235;-60
2022/12/17 19:57:02;;;;;;;26.37;22.10;;;;;;;0.01;100.00;97461.72;4992597;28;20211;-59
2022/12/17 19:59:30;;;;;;;28.43;23.30;;;;;;;0.00;100.00;97470.44;4992152;28;20215;-60
2022/12/17 20:01:56;;;;;;;29.90;24.03;;;;;;;0.05;100.00;97475.44;4992267;28;20239;-60
2022/12/17 20:04:23;;;;;;;27.23;23.03;;;;;;;0.04;100.00;97478.97;4992406;28;20211;-59
2022/12/17 20:06:50;;;;;;;25.83;22.50;;;;;;;-0.02;100.00;97488.69;4992379;28;20199;-59
2022/12/17 20:09:16;;;;;;;27.70;22.50;;;;;;;-0.04;100.00;97490.50;4992301;28;20316;-59
2022/12/17 20:11:43;;;;;;;27.93;23.53;;;;;;;-0.12;100.00;97492.56;4991935;28;20271;-58
2022/12/17 20:14:12;;;;;;;29.30;22.03;;;;;;;-0.16;100.00;97495.31;4992297;28;20199;-60
2022/12/17 20:16:42;;;;;;;28.07;22.57;;;;;;;-0.05;100.00;97493.16;4992897;28;20212;-60
2022/12/17 20:19:11;;;;;;;29.83;23.93;;;;;;;-0.11;100.00;97491.63;4992449;28;20219;-59
2022/12/17 20:21:40;;;;;;;29.77;24.13;;;;;;;-0.21;100.00;97492.88;4992242;28;20215;-59
2022/12/17 20:24:07;;;;;;;26.87;22.80;;;;;;;-0.19;100.00;97495.44;4992008;28;20208;-60
2022/12/17 20:26:35;;;;;;;27.40;22.50;;;;;;;-0.11;100.00;97493.41;4992156;28;20219;-61
2022/12/17 20:29:02;;;;;;;28.40;23.23;;;;;;;-0.21;100.00;97485.06;4991183;28;20216;-60
2022/12/17 20:31:29;;;;;;;27.90;22.47;;;;;;;-0.19;100.00;97488.50;4992556;28;20288;-60
2022/12/17 20:33:57;;;;;;;28.67;23.43;;;;;;;-0.13;100.00;97495.19;4991998;28;20667;-61
2022/12/17 20:36:24;;;;;;;28.33;21.83;;;;;;;-0.17;100.00;97496.22;4991827;28;20251;-60
2022/12/17 20:38:51;;;;;;;29.20;23.13;;;;;;;-0.17;100.00;97497.06;4991664;28;20654;-60
2022/12/17 20:41:19;;;;;;;32.17;24.97;;;;;;;-0.18;100.00;97508.34;4991762;28;20206;-60
2022/12/17 20:43:46;;;;;;;33.50;24.00;;;;;;;-0.06;100.00;97513.13;4996881;28;20246;-62
2022/12/17 20:46:14;;;;;;;32.27;25.97;;;;;;;-0.03;100.00;97512.13;5001354;28;20216;-60
2022/12/17 20:48:42;;;;;;;29.60;23.23;;;;;;;-0.06;100.00;97517.47;5001463;28;20217;-61
2022/12/17 20:51:14;;;;;;;28.57;24.13;;;;;;;-0.05;100.00;97514.81;5001670;28;20205;-58
2022/12/17 20:53:41;;;;;;;28.43;22.10;;;;;;;-0.12;100.00;97500.34;5001644;28;20207;-60
2022/12/17 20:56:10;;;;;;;27.87;22.80;;;;;;;-0.21;100.00;97494.63;5000913;28;20228;-59
2022/12/17 20:58:37;;;;;;;28.10;23.73;;;;;;;-0.20;100.00;97499.78;5001074;28;21430;-59
2022/12/17 21:01:06;;;;;;;27.03;21.87;;;;;;;-0.24;100.00;97503.41;5001045;28;20207;-60
2022/12/17 21:03:32;;;;;;;27.07;23.47;;;;;;;-0.22;100.00;97508.53;5001463;28;20207;-58
2022/12/17 21:06:08;;;;;;;27.30;22.90;;;;;;;-0.14;100.00;97498.69;5001246;28;20214;-57
2022/12/17 21:08:36;;;;;;;27.57;23.60;;;;;;;-0.23;100.00;97505.09;5001247;28;20205;-57
2022/12/17 21:11:03;;;;;;;29.97;24.17;;;;;;;-0.22;100.00;97501.59;5000779;28;20639;-59
2022/12/17 21:13:30;;;;;;;31.50;23.83;;;;;;;-0.17;100.00;97504.00;5001699;28;20238;-58
2022/12/17 21:15:57;;;;;;;29.73;24.10;;;;;;;-0.30;100.00;97507.97;5001555;28;20612;-58
2022/12/17 21:18:25;;;;;;;28.20;23.07;;;;;;;-0.30;100.00;97514.03;5001441;28;20208;-58
2022/12/17 21:20:58;;;;;;;30.97;24.67;;;;;;;-0.31;100.00;97514.91;5000777;28;20541;-58
2022/12/17 21:23:25;;;;;;;29.60;24.83;;;;;;;-0.27;100.00;97507.84;4997882;28;20203;-59
2022/12/17 21:26:01;;;;;;;30.10;23.57;;;;;;;-0.30;100.00;97508.81;4996872;28;20205;-58
2022/12/17 21:28:28;;;;;;;29.80;23.53;;;;;;;-0.26;100.00;97505.22;4998326;28;20207;-58
2022/12/17 21:30:55;;;;;;;29.57;24.77;;;;;;;-0.28;100.00;97507.00;4999914;28;20199;-58
2022/12/17 21:33:22;;;;;;;28.83;23.97;;;;;;;-0.28;100.00;97501.81;5012630;28;20217;-59
2022/12/17 21:35:48;;;;;;;31.63;25.13;;;;;;;-0.25;100.00;97509.50;5023759;28;20234;-58
2022/12/17 21:38:15;;;;;;;32.80;24.77;;;;;;;-0.32;100.00;97505.41;5019352;28;20246;-58
2022/12/17 21:40:42;;;;;;;31.20;26.30;;;;;;;-0.34;100.00;97515.03;5013134;28;20623;-57
2022/12/17 21:43:10;;;;;;;33.17;25.13;;;;;;;-0.33;100.00;97511.53;5007590;28;20262;-58
2022/12/17 21:45:38;;;;;;;29.80;25.50;;;;;;;-0.33;100.00;97519.34;5006724;28;20234;-58
2022/12/17 21:48:06;;;;;;;31.10;25.03;;;;;;;-0.30;100.00;97529.63;5008376;28;20733;-64
2022/12/17 21:50:33;;;;;;;32.23;25.67;;;;;;;-0.38;100.00;97531.63;5009366;28;20853;-58
2022/12/17 21:53:00;;;;;;;32.87;25.23;;;;;;;-0.37;100.00;97533.34;5010204;28;20207;-59
2022/12/17 21:55:26;;;;;;;33.03;25.53;;;;;;;-0.33;100.00;97523.69;5007322;28;20234;-58
2022/12/17 21:57:53;;;;;;;32.60;25.57;;;;;;;-0.36;100.00;97521.19;5004603;28;20205;-58
2022/12/17 22:00:23;;;;;;;33.40;25.70;;;;;;;-0.42;100.00;97524.84;5004047;28;20536;-61
2022/12/17 22:02:50;;;;;;;29.70;24.60;;;;;;;-0.51;100.00;97510.44;5003879;28;20642;-52
2022/12/17 22:05:17;;;;;;;31.23;24.40;;;;;;;-0.51;100.00;97514.78;5004518;28;20219;-55
2022/12/17 22:07:43;;;;;;;32.37;25.40;;;;;;;-0.51;100.00;97520.84;5004032;28;20650;-55
2022/12/17 22:10:10;;;;;;;30.47;23.70;;;;;;;-0.43;100.00;97528.38;5004289;28;20228;-56
2022/12/17 22:15:22;;;;;;;34.13;25.30;;;;;;;-0.40;100.00;97522.22;5003879;28;20226;-57
2022/12/17 22:17:49;;;;;;;32.93;26.13;;;;;;;-0.44;100.00;97521.47;5004453;28;20226;-55
2022/12/17 22:20:16;;;;;;;30.93;25.53;;;;;;;-0.45;100.00;97524.09;5003447;28;20223;-56
2022/12/17 22:22:42;;;;;;;33.07;26.27;;;;;;;-0.46;100.00;97528.44;5005141;28;20219;-54
2022/12/17 22:25:10;;;;;;;33.50;26.30;;;;;;;-0.46;100.00;97533.66;5003497;28;20586;-56
2022/12/17 22:27:38;;;;;;;32.33;25.93;;;;;;;-0.37;100.00;97538.53;5004603;28;20207;-55
2022/12/17 22:33:01;;;;;;;30.43;26.07;;;;;;;-0.44;100.00;97524.06;4960956;28;20713;-57
2022/12/17 22:35:29;;;;;;;30.60;25.10;;;;;;;-0.44;100.00;97516.28;5005006;28;20671;-56
2022/12/17 22:37:55;;;;;;;33.50;26.93;;;;;;;-0.51;100.00;97507.84;5017855;28;20214;-55
2022/12/17 22:40:22;;;;;;;33.80;26.90;;;;;;;-0.52;100.00;97507.91;5014398;28;20214;-58
2022/12/17 22:45:41;;;;;;;32.47;24.60;;;;;;;-0.46;100.00;97505.06;4978489;28;20245;-59
2022/12/17 22:48:11;;;;;;;33.27;26.03;;;;;;;-0.44;100.00;97513.69;5012858;28;20269;-60
2022/12/17 22:50:39;;;;;;;34.73;27.37;;;;;;;-0.44;100.00;97500.69;5004124;28;20266;-58
2022/12/17 22:53:09;;;;;;;32.77;26.90;;;;;;;-0.45;100.00;97504.16;5002763;28;20212;-58
2022/12/17 22:55:36;;;;;;;36.23;26.77;;;;;;;-0.45;100.00;97509.38;5003924;28;20230;-58
2022/12/17 22:58:02;;;;;;;39.17;29.70;;;;;;;-0.41;100.00;97510.09;5003363;28;20196;-55
2022/12/17 23:00:31;;;;;;;34.43;27.30;;;;;;;-0.34;100.00;97512.44;5004798;28;20216;-56
2022/12/17 23:02:59;;;;;;;32.00;27.23;;;;;;;-0.31;100.00;97517.50;5004925;28;20222;-58
2022/12/17 23:05:28;;;;;;;34.37;27.07;;;;;;;-0.40;100.00;97519.59;5003500;28;20219;-60
2022/12/17 23:07:55;;;;;;;36.73;27.80;;;;;;;-0.49;100.00;97518.19;5003320;28;20270;-63
2022/12/17 23:10:22;;;;;;;33.07;26.23;;;;;;;-0.39;100.00;97523.91;5002574;28;20540;-58
2022/12/17 23:12:52;;;;;;;31.83;25.70;;;;;;;-0.38;100.00;97526.44;5002932;28;20408;-57
2022/12/17 23:15:20;;;;;;;33.50;26.70;;;;;;;-0.39;100.00;97532.53;5002629;28;20247;-58
2022/12/17 23:17:47;;;;;;;32.90;26.13;;;;;;;-0.39;100.00;97527.34;5002763;28;20206;-57
2022/12/17 23:20:14;;;;;;;34.67;25.97;;;;;;;-0.37;100.00;97528.13;5002105;28;20216;-59
2022/12/17 23:22:42;;;;;;;36.03;27.10;;;;;;;-0.46;100.00;97523.25;5001934;28;20207;-58
2022/12/17 23:25:09;;;;;;;34.23;27.70;;;;;;;-0.52;100.00;97532.13;5001278;28;20788;-58
2022/12/17 23:27:36;;;;;;;34.70;26.97;;;;;;;-0.52;100.00;97534.72;5003087;28;20201;-56
2022/12/17 23:30:03;;;;;;;32.87;26.10;;;;;;;-0.55;100.00;97534.00;5002795;28;20203;-62
2022/12/17 23:32:30;;;;;;;33.73;26.33;;;;;;;-0.42;100.00;97530.03;5002931;28;20222;-57
2022/12/17 23:34:56;;;;;;;33.10;26.33;;;;;;;-0.50;100.00;97521.69;5002602;28;20223;-64
2022/12/17 23:37:23;;;;;;;30.57;26.13;;;;;;;-0.59;100.00;97537.59;5002774;28;20221;-58
2022/12/17 23:39:51;;;;;;;33.87;26.37;;;;;;;-0.58;100.00;97534.94;5001779;28;20291;-58
2022/12/17 23:42:17;;;;;;;34.80;27.37;;;;;;;-0.44;100.00;97531.88;5002780;28;20206;-58
2022/12/17 23:44:44;;;;;;;32.47;26.53;;;;;;;-0.45;100.00;97534.50;5004168;28;20236;-58
2022/12/17 23:47:11;;;;;;;32.73;26.90;;;;;;;-0.52;100.00;97531.28;5006737;28;20217;-61
2022/12/17 23:49:38;;;;;;;31.43;26.07;;;;;;;-0.53;100.00;97533.03;5006083;28;20238;-59
2022/12/17 23:52:05;;;;;;;35.90;27.97;;;;;;;-0.57;100.00;97530.59;5006761;28;20217;-61
2022/12/17 23:54:33;;;;;;;33.03;25.47;;;;;;;-0.56;100.00;97533.13;5012228;28;20214;-60
2022/12/17 23:57:01;;;;;;;32.47;25.77;;;;;;;-0.54;100.00;97531.34;5023197;28;20242;-61
2022/12/17 23:59:28;;;;;;;36.43;27.60;;;;;;;-0.48;100.00;97540.66;5015419;28;20201;-60
